createdAt,value
2023-03-22T00:01:53.864Z,11.97
2023-03-22T00:04:35.660Z,11.47
2023-03-22T00:07:16.645Z,11.08
2023-03-22T00:10:15.821Z,11.38
2023-03-22T00:13:02.597Z,14.25
2023-03-22T00:15:44.463Z,15.25
2023-03-22T00:18:25.648Z,14.15
2023-03-22T00:21:07.451Z,13.05
2023-03-22T00:23:55.465Z,12.20
2023-03-22T00:26:36.456Z,11.61
2023-03-22T00:29:17.607Z,11.16
2023-03-22T00:32:01.485Z,11.38
2023-03-22T00:34:42.582Z,13.76
2023-03-22T00:37:24.470Z,14.94
2023-03-22T00:40:05.606Z,13.95
2023-03-22T00:42:48.485Z,12.92
2023-03-22T00:45:29.588Z,12.13
2023-03-22T00:48:10.488Z,11.61
2023-03-22T00:50:51.633Z,11.11
2023-03-22T00:53:32.444Z,11.47
2023-03-22T00:56:22.489Z,14.01
2023-03-22T00:59:18.457Z,15.07
2023-03-22T01:02:06.452Z,13.86
2023-03-22T01:04:46.627Z,12.76
2023-03-22T01:07:34.493Z,11.95
2023-03-22T01:10:09.834Z,11.36
2023-03-22T01:12:58.452Z,10.90
2023-03-22T01:15:33.624Z,11.29
2023-03-22T01:18:21.448Z,13.61
2023-03-22T01:20:55.628Z,14.69
2023-03-22T01:23:43.466Z,13.75
2023-03-22T01:26:18.569Z,12.67
2023-03-22T01:29:06.483Z,11.90
2023-03-22T01:31:41.613Z,11.33
2023-03-22T01:34:29.438Z,10.85
2023-03-22T01:37:10.451Z,11.26
2023-03-22T01:39:58.440Z,13.70
2023-03-22T01:42:34.599Z,15.18
2023-03-22T01:45:23.453Z,15.00
2023-03-22T01:48:12.517Z,13.67
2023-03-22T01:51:20.549Z,12.55
2023-03-22T01:54:12.447Z,11.74
2023-03-22T01:56:48.574Z,11.20
2023-03-22T01:59:37.518Z,11.59
2023-03-22T02:02:15.068Z,13.66
2023-03-22T02:05:04.463Z,14.85
2023-03-22T02:07:39.612Z,14.50
2023-03-22T02:10:30.515Z,13.19
2023-03-22T02:13:39.540Z,12.15
2023-03-22T02:16:57.459Z,11.34
2023-03-22T02:20:17.456Z,11.98
2023-03-22T02:23:18.452Z,14.55
2023-03-22T02:26:43.440Z,14.93
2023-03-22T02:29:48.444Z,13.33
2023-03-22T02:32:53.565Z,12.27
2023-03-22T02:35:58.476Z,11.51
2023-03-22T02:38:42.651Z,11.68
2023-03-22T02:42:05.459Z,13.75
2023-03-22T02:44:52.579Z,15.04
2023-03-22T02:48:00.466Z,14.02
2023-03-22T02:50:37.821Z,12.72
2023-03-22T02:53:25.446Z,11.92
2023-03-22T02:56:09.567Z,11.36
2023-03-22T02:59:00.426Z,11.60
2023-03-22T03:01:46.672Z,13.76
2023-03-22T03:04:47.428Z,14.57
2023-03-22T03:07:25.077Z,13.43
2023-03-22T03:10:13.443Z,12.34
2023-03-22T03:12:54.500Z,11.53
2023-03-22T03:15:36.586Z,10.81
2023-03-22T03:18:33.521Z,10.94
2023-03-22T03:21:39.475Z,13.32
2023-03-22T03:24:39.522Z,14.68
2023-03-22T03:27:36.435Z,14.53
2023-03-22T03:30:38.673Z,13.10
2023-03-22T03:33:28.437Z,12.06
2023-03-22T03:36:14.428Z,11.43
2023-03-22T03:39:11.448Z,11.75
2023-03-22T03:42:00.429Z,14.20
2023-03-22T03:44:44.425Z,15.02
2023-03-22T03:47:39.437Z,13.80
2023-03-22T03:50:27.481Z,12.62
2023-03-22T03:53:02.578Z,11.90
2023-03-22T03:55:50.441Z,11.37
2023-03-22T03:58:31.603Z,11.76
2023-03-22T04:01:12.447Z,13.72
2023-03-22T04:04:02.502Z,15.03
2023-03-22T04:06:46.441Z,14.33
2023-03-22T04:09:34.437Z,13.02
2023-03-22T04:12:11.896Z,12.12
2023-03-22T04:14:59.435Z,11.47
2023-03-22T04:17:40.443Z,11.61
2023-03-22T04:20:21.565Z,13.68
2023-03-22T04:23:02.437Z,14.56
2023-03-22T04:25:57.447Z,13.54
2023-03-22T04:28:33.736Z,12.39
2023-03-22T04:31:21.474Z,11.60
2023-03-22T04:34:03.436Z,11.66
2023-03-22T04:36:46.626Z,13.73
2023-03-22T04:39:27.453Z,14.64
2023-03-22T04:42:15.421Z,13.58
2023-03-22T04:44:49.900Z,12.49
2023-03-22T04:47:37.448Z,11.70
2023-03-22T04:50:11.894Z,11.14
2023-03-22T04:52:59.437Z,11.39
2023-03-22T04:55:34.409Z,13.64
2023-03-22T04:58:23.444Z,14.65
2023-03-22T05:00:58.675Z,13.59
2023-03-22T05:03:47.534Z,12.46
2023-03-22T05:06:28.496Z,11.67
2023-03-22T05:09:16.428Z,11.08
2023-03-22T05:11:50.849Z,11.29
2023-03-22T05:14:38.584Z,13.47
2023-03-22T05:17:19.432Z,14.43
2023-03-22T05:20:08.617Z,13.40
2023-03-22T05:22:49.438Z,12.34
2023-03-22T05:25:30.543Z,11.61
2023-03-22T05:28:12.420Z,11.15
2023-03-22T05:30:57.045Z,10.80
2023-03-22T05:33:46.425Z,11.38
2023-03-22T05:36:20.653Z,13.94
2023-03-22T05:39:09.463Z,15.55
2023-03-22T05:41:44.956Z,15.27
2023-03-22T05:44:32.538Z,14.08
2023-03-22T05:47:14.433Z,13.17
2023-03-22T05:50:02.441Z,12.53
2023-03-22T05:52:37.624Z,12.06
2023-03-22T05:55:26.451Z,11.67
2023-03-22T05:58:02.198Z,12.00
2023-03-22T06:00:50.424Z,14.44
2023-03-22T06:03:24.697Z,15.58
2023-03-22T06:06:17.434Z,14.66
2023-03-22T06:09:16.544Z,13.59
2023-03-22T06:11:51.866Z,12.87
2023-03-22T06:14:39.440Z,12.43
2023-03-22T06:17:20.453Z,12.09
2023-03-22T06:20:01.551Z,11.79
2023-03-22T06:22:42.426Z,12.18
2023-03-22T06:25:23.620Z,14.68
2023-03-22T06:28:06.380Z,15.89
2023-03-22T06:30:55.445Z,14.99
2023-03-22T06:33:29.807Z,13.99
2023-03-22T06:36:17.428Z,13.30
2023-03-22T06:38:51.865Z,12.79
2023-03-22T06:41:39.437Z,12.36
2023-03-22T06:44:14.615Z,12.07
2023-03-22T06:47:02.400Z,12.54
2023-03-22T06:49:43.421Z,15.08
2023-03-22T06:52:24.580Z,16.41
2023-03-22T06:55:05.435Z,15.71
2023-03-22T06:57:53.418Z,14.87
2023-03-22T07:00:35.410Z,14.36
2023-03-22T07:03:23.411Z,14.01
2023-03-22T07:06:20.406Z,13.77
2023-03-22T07:09:09.416Z,13.60
2023-03-22T07:11:43.558Z,13.45
2023-03-22T07:14:31.429Z,13.32
2023-03-22T07:17:06.587Z,13.24
2023-03-22T07:19:54.454Z,13.17
2023-03-22T07:22:29.593Z,13.82
2023-03-22T07:25:17.407Z,16.39
2023-03-22T07:27:58.549Z,17.46
2023-03-22T07:30:42.609Z,16.50
2023-03-22T07:33:23.561Z,15.45
2023-03-22T07:36:04.420Z,14.82
2023-03-22T07:38:45.656Z,14.38
2023-03-22T07:41:26.440Z,14.08
2023-03-22T07:44:17.319Z,13.81
2023-03-22T07:46:59.741Z,13.55
2023-03-22T07:49:41.621Z,13.32
2023-03-22T07:52:22.441Z,13.19
2023-03-22T07:55:03.575Z,13.11
2023-03-22T07:57:45.419Z,13.82
2023-03-22T08:00:26.437Z,16.31
2023-03-22T08:03:01.855Z,17.47
2023-03-22T08:05:50.448Z,16.63
2023-03-22T08:08:26.703Z,15.72
2023-03-22T08:11:15.599Z,15.08
2023-03-22T08:13:57.481Z,14.64
2023-03-22T08:16:52.453Z,14.31
2023-03-22T08:19:41.454Z,13.97
2023-03-22T08:22:16.567Z,13.70
2023-03-22T08:25:04.914Z,13.47
2023-03-22T08:27:39.843Z,13.36
2023-03-22T08:30:29.415Z,13.31
2023-03-22T08:33:11.602Z,14.03
2023-03-22T08:35:59.420Z,16.72
2023-03-22T08:38:33.555Z,17.79
2023-03-22T08:41:22.423Z,16.86
2023-03-22T08:43:57.698Z,15.95
2023-03-22T08:46:45.420Z,15.34
2023-03-22T08:49:21.028Z,14.89
2023-03-22T08:52:10.434Z,14.57
2023-03-22T08:54:46.865Z,14.35
2023-03-22T08:57:38.695Z,14.20
2023-03-22T09:00:14.760Z,14.09
2023-03-22T09:03:02.416Z,14.01
2023-03-22T09:05:37.867Z,14.10
2023-03-22T09:08:27.415Z,16.09
2023-03-22T09:11:01.571Z,17.87
2023-03-22T09:13:49.426Z,17.43
2023-03-22T09:16:25.606Z,16.65
2023-03-22T09:19:13.416Z,16.14
2023-03-22T09:21:55.407Z,15.85
2023-03-22T09:24:43.422Z,15.78
2023-03-22T09:27:25.418Z,15.95
2023-03-22T09:30:21.432Z,16.20
2023-03-22T09:33:11.044Z,16.50
2023-03-22T09:35:49.555Z,16.78
2023-03-22T09:38:40.416Z,17.05
2023-03-22T09:41:18.578Z,17.24
2023-03-22T09:44:09.437Z,17.35
2023-03-22T09:46:54.417Z,17.51
2023-03-22T09:49:53.735Z,17.47
2023-03-22T09:52:35.589Z,17.25
2023-03-22T09:55:48.397Z,17.03
2023-03-22T09:58:53.581Z,16.81
2023-03-22T10:02:07.653Z,16.67
2023-03-22T10:04:57.422Z,16.64
2023-03-22T10:08:29.461Z,16.61
2023-03-22T10:11:41.876Z,16.57
2023-03-22T10:14:27.400Z,16.57
2023-03-22T10:17:24.497Z,16.59
2023-03-22T10:20:04.509Z,16.58
2023-03-22T10:23:00.415Z,16.62
2023-03-22T10:25:48.396Z,16.69
2023-03-22T10:28:27.530Z,16.80
2023-03-22T10:31:24.641Z,17.00
2023-03-22T10:34:05.547Z,17.31
2023-03-22T10:36:54.418Z,17.64
2023-03-22T10:39:40.536Z,17.97
2023-03-22T10:42:33.412Z,18.31
2023-03-22T10:45:18.417Z,18.59
2023-03-22T10:48:28.621Z,18.84
2023-03-22T10:51:06.560Z,19.09
2023-03-22T10:53:57.403Z,19.28
2023-03-22T10:56:39.444Z,19.45
2023-03-22T11:00:02.419Z,19.61
2023-03-22T11:03:08.452Z,19.80
2023-03-22T11:05:43.539Z,19.95
2023-03-22T11:08:31.420Z,20.07
2023-03-22T11:11:05.585Z,20.28
2023-03-22T11:13:58.415Z,20.43
2023-03-22T11:16:40.476Z,20.56
2023-03-22T11:19:56.430Z,20.71
2023-03-22T11:23:00.419Z,20.87
2023-03-22T11:25:53.406Z,20.98
2023-03-22T11:28:34.581Z,21.12
2023-03-22T11:31:25.515Z,21.27
2023-03-22T11:34:07.607Z,21.41
2023-03-22T11:36:51.603Z,21.52
2023-03-22T11:39:34.540Z,21.52
2023-03-22T11:42:26.427Z,21.42
2023-03-22T11:45:15.088Z,21.21
2023-03-22T11:47:50.009Z,20.89
2023-03-22T11:50:48.463Z,20.52
2023-03-22T11:53:26.451Z,20.12
2023-03-22T11:56:17.439Z,19.82
2023-03-22T11:59:12.412Z,19.75
2023-03-22T12:02:01.726Z,19.76
2023-03-22T12:04:46.456Z,19.65
2023-03-22T12:07:28.580Z,19.55
2023-03-22T12:10:28.413Z,19.45
2023-03-22T12:13:26.432Z,19.17
2023-03-22T12:16:10.475Z,19.04
2023-03-22T12:19:04.412Z,19.14
2023-03-22T12:21:45.439Z,19.26
2023-03-22T12:24:33.687Z,19.32
2023-03-22T12:27:59.445Z,19.34
2023-03-22T12:30:57.484Z,19.30
2023-03-22T12:33:46.436Z,19.26
2023-03-22T12:36:40.424Z,19.32
2023-03-22T12:39:33.525Z,19.45
2023-03-22T12:42:52.618Z,19.50
2023-03-22T12:45:36.461Z,19.59
2023-03-22T12:48:27.863Z,19.63
2023-03-22T12:51:13.419Z,19.52
2023-03-22T12:53:58.567Z,19.31
2023-03-22T12:56:52.415Z,19.18
2023-03-22T12:59:30.588Z,19.22
2023-03-22T13:02:30.558Z,19.40
2023-03-22T13:05:09.520Z,19.69
2023-03-22T13:07:59.424Z,20.12
2023-03-22T13:10:48.422Z,20.42
2023-03-22T13:13:36.515Z,20.68
2023-03-22T13:16:16.599Z,20.83
2023-03-22T13:19:06.438Z,20.72
2023-03-22T13:21:48.448Z,20.55
2023-03-22T13:24:44.454Z,20.44
2023-03-22T13:27:50.420Z,20.49
2023-03-22T13:30:38.550Z,20.78
2023-03-22T13:33:22.430Z,21.94
2023-03-22T13:36:13.448Z,22.64
2023-03-22T13:39:06.431Z,23.55
2023-03-22T13:41:41.098Z,24.29
2023-03-22T13:44:53.437Z,25.15
2023-03-22T13:47:43.676Z,25.41
2023-03-22T13:50:45.331Z,25.23
2023-03-22T13:53:36.428Z,25.72
2023-03-22T13:57:03.529Z,26.33
2023-03-22T14:00:45.532Z,26.73
2023-03-22T14:03:41.539Z,26.74
2023-03-22T14:06:33.876Z,26.40
2023-03-22T14:09:36.429Z,25.95
2023-03-22T14:12:26.568Z,25.46
2023-03-22T14:15:15.524Z,25.06
2023-03-22T14:17:53.684Z,24.40
2023-03-22T14:20:43.754Z,23.86
